| time (UTC) | temp F | wind direction | speed knots | gust knots | rain 1hr in | rain 24hr in | rain mn in | humidity % | barometer mb |
| 20260506015532 | 63 | 340 | 0.9 | 3.5 | 0.00 | 0.03 | 0.03 | 77 | 1017.3 |
| 20260506014531 | 64 | 343 | 0.9 | 3.5 | 0.00 | 0.03 | 0.03 | 76 | 1017.3 |
| 20260506013553 | 64 | 335 | 1.7 | 3.5 | 0.00 | 0.03 | 0.03 | 75 | 1017.3 |
| 20260506012533 | 64 | 297 | 1.7 | 2.6 | 0.00 | 0.03 | 0.03 | 75 | 1017.3 |
| 20260506011516 | 66 | 315 | 0.0 | 0.9 | 0.00 | 0.03 | 0.03 | 74 | 1017.3 |
| 20260506010536 | 66 | 6 | 0.9 | 2.6 | 0.00 | 0.03 | 0.03 | 73 | 1017.4 |
| 20260506005517 | 66 | 338 | 0.0 | 0.9 | 0.00 | 0.03 | 0.03 | 74 | 1017.5 |
| 20260506004517 | 66 | 350 | 2.6 | 3.5 | 0.00 | 0.03 | 0.03 | 73 | 1017.6 |
| 20260506003525 | 66 | 352 | 0.9 | 4.3 | 0.00 | 0.03 | 0.03 | 73 | 1017.5 |
| 20260506002522 | 66 | 356 | 1.7 | 3.5 | 0.00 | 0.03 | 0.03 | 73 | 1017.3 |
| 20260506001517 | 66 | 330 | 0.9 | 3.5 | 0.00 | 0.03 | 0.03 | 74 | 1017.3 |
| 20260506000532 | 66 | 325 | 2.6 | 4.3 | 0.00 | 0.03 | 0.03 | 73 | 1017.3 |
| 20260505235526 | 67 | 316 | 1.7 | 4.3 | 0.00 | 0.03 | 0.03 | 72 | 1017.2 |
| 20260505234527 | 66 | 307 | 1.7 | 3.5 | 0.00 | 0.03 | 0.03 | 74 | 1017.1 |
| 20260505233529 | 66 | 325 | 1.7 | 2.6 | 0.00 | 0.03 | 0.03 | 74 | 1017.1 |
| 20260505232525 | 66 | 354 | 3.5 | 8.7 | 0.00 | 0.03 | 0.03 | 73 | 1017.1 |
| 20260505231527 | 66 | 317 | 1.7 | 3.5 | 0.00 | 0.03 | 0.03 | 74 | 1017.3 |
| 20260505230516 | 65 | 341 | 2.6 | 4.3 | 0.00 | 0.03 | 0.03 | 76 | 1017.3 |
| 20260505225537 | 65 | 349 | 0.9 | 3.5 | 0.00 | 0.03 | 0.03 | 75 | 1017.3 |
| 20260505224518 | 66 | 0 | 1.7 | 4.3 | 0.00 | 0.03 | 0.03 | 74 | 1017.3 |
| 20260505223518 | 66 | 318 | 0.9 | 3.5 | 0.00 | 0.03 | 0.03 | 73 | 1017.5 |
| 20260505222546 | 65 | 318 | 1.7 | 4.3 | 0.00 | 0.04 | 0.03 | 75 | 1017.5 |
| 20260505221542 | 64 | 330 | 2.6 | 3.5 | 0.00 | 0.04 | 0.03 | 76 | 1017.6 |
| 20260505220518 | 65 | 350 | 1.7 | 3.5 | 0.00 | 0.04 | 0.03 | 76 | 1017.6 |
| 20260505215521 | 64 | 292 | 0.9 | 3.5 | 0.00 | 0.04 | 0.03 | 77 | 1017.7 |
| 20260505214517 | 64 | 227 | 0.9 | 2.6 | 0.00 | 0.04 | 0.03 | 77 | 1017.8 |
| 20260505213520 | 65 | 342 | 2.6 | 4.3 | 0.00 | 0.04 | 0.03 | 74 | 1017.8 |
| 20260505212539 | 65 | 355 | 2.6 | 5.2 | 0.00 | 0.04 | 0.03 | 75 | 1017.8 |
| 20260505211540 | 66 | 338 | 0.9 | 2.6 | 0.00 | 0.04 | 0.03 | 74 | 1017.6 |
| 20260505210526 | 64 | 288 | 0.9 | 3.5 | 0.00 | 0.04 | 0.03 | 76 | 1017.7 |
| 20260505205522 | 64 | 325 | 2.6 | 4.3 | 0.00 | 0.04 | 0.03 | 77 | 1017.8 |
| 20260505204518 | 63 | 314 | 1.7 | 3.5 | 0.00 | 0.04 | 0.03 | 78 | 1018.1 |
| 20260505203527 | 63 | 281 | 1.7 | 5.2 | 0.00 | 0.04 | 0.03 | 78 | 1018.1 |
| 20260505202528 | 63 | 330 | 2.6 | 6.1 | 0.00 | 0.04 | 0.03 | 77 | 1018.0 |
| 20260505201525 | 63 | 323 | 1.7 | 3.5 | 0.00 | 0.04 | 0.03 | 78 | 1018.0 |
| 20260505200542 | 63 | 5 | 2.6 | 4.3 | 0.00 | 0.04 | 0.03 | 79 | 1018.1 |
| 20260505195521 | 62 | 345 | 1.7 | 4.3 | 0.00 | 0.04 | 0.03 | 80 | 1018.1 |
| 20260505194521 | 61 | 305 | 1.7 | 4.3 | 0.00 | 0.04 | 0.03 | 80 | 1018.1 |
| 20260505193538 | 63 | 325 | 3.5 | 5.2 | 0.00 | 0.04 | 0.03 | 77 | 1018.3 |
| 20260505192518 | 63 | 336 | 1.7 | 3.5 | 0.00 | 0.04 | 0.03 | 76 | 1018.1 |
| 20260505191541 | 62 | 355 | 1.7 | 4.3 | 0.00 | 0.05 | 0.03 | 77 | 1018.1 |
| 20260505190522 | 63 | 302 | 2.6 | 3.5 | 0.00 | 0.06 | 0.03 | 77 | 1018.1 |
| 20260505185528 | 62 | 296 | 0.9 | 2.6 | 0.00 | 0.07 | 0.03 | 78 | 1018.1 |
| 20260505184524 | 62 | 240 | 0.9 | 2.6 | 0.00 | 0.08 | 0.03 | 79 | 1018.0 |
| 20260505183520 | 61 | 261 | 0.9 | 3.5 | 0.00 | 0.08 | 0.03 | 80 | 1017.8 |
| 20260505182527 | 62 | 293 | 0.0 | 2.6 | 0.00 | 0.08 | 0.03 | 79 | 1017.8 |
| 20260505181528 | 61 | 290 | 0.9 | 2.6 | 0.00 | 0.08 | 0.03 | 78 | 1017.8 |
| 20260505180529 | 61 | 264 | 0.9 | 2.6 | 0.00 | 0.09 | 0.03 | 80 | 1017.8 |
| 20260505175526 | 60 | 0.0 | 0.0 | 0.00 | 0.09 | 0.03 | 80 | 1017.8 | |
| 20260505174546 | 61 | 303 | 1.7 | 5.2 | 0.00 | 0.09 | 0.03 | 79 | 1017.8 |
| 20260505173528 | 60 | 265 | 0.9 | 3.5 | 0.00 | 0.09 | 0.03 | 80 | 1017.6 |
| 20260505172528 | 61 | 284 | 0.9 | 4.3 | 0.00 | 0.09 | 0.03 | 79 | 1017.6 |
| 20260505171530 | 60 | 248 | 0.0 | 2.6 | 0.00 | 0.09 | 0.03 | 81 | 1017.6 |
| 20260505170529 | 59 | 0.0 | 0.0 | 0.00 | 0.09 | 0.03 | 84 | 1017.6 | |
| 20260505165530 | 59 | 278 | 0.9 | 3.5 | 0.00 | 0.09 | 0.03 | 85 | 1017.6 |
| 20260505164545 | 58 | 225 | 0.0 | 1.7 | 0.00 | 0.09 | 0.03 | 86 | 1017.6 |
| 20260505163521 | 57 | 0.0 | 0.0 | 0.00 | 0.09 | 0.03 | 89 | 1017.6 | |
| 20260505162522 | 56 | 0.0 | 0.0 | 0.00 | 0.09 | 0.03 | 89 | 1017.6 | |
| 20260505161543 | 56 | 348 | 1.7 | 4.3 | 0.00 | 0.09 | 0.03 | 90 | 1017.5 |
| 20260505160524 | 56 | 313 | 0.9 | 3.5 | 0.00 | 0.09 | 0.03 | 91 | 1017.4 |
| 20260505152527 | 56 | 0.0 | 2.6 | 0.00 | 0.09 | 0.03 | 94 | 1017.1 | |
| 20260505151549 | 55 | 316 | 1.7 | 3.5 | 0.00 | 0.09 | 0.03 | 94 | 1017.1 |
| 20260505150529 | 55 | 340 | 1.7 | 3.5 | 0.00 | 0.09 | 0.03 | 95 | 1017.0 |
| 20260505140526 | 53 | 0.0 | 2.6 | 0.00 | 0.09 | 0.03 | 99 | 1016.7 | |
| 20260505124517 | 53 | 0.0 | 0.0 | 0.00 | 0.09 | 0.03 | 99 | 1016.3 | |
| 20260505123524 | 53 | 0.0 | 0.0 | 0.00 | 0.09 | 0.03 | 99 | 1016.3 | |
| 20260505122520 | 53 | 0.0 | 0.0 | 0.00 | 0.09 | 0.03 | 99 | 1016.4 | |
| 20260505121528 | 53 | 315 | 0.0 | 1.7 | 0.00 | 0.09 | 0.03 | 99 | 1016.4 |
| 20260505120528 | 53 | 0.0 | 0.9 | 0.00 | 0.09 | 0.03 | 99 | 1016.5 | |
| 20260505115518 | 53 | 34 | 0.9 | 2.6 | 0.00 | 0.09 | 0.03 | 99 | 1016.6 |
| 20260505114533 | 53 | 0.0 | 1.7 | 0.00 | 0.09 | 0.03 | 99 | 1016.6 | |
| 20260505113528 | 53 | 0.0 | 0.0 | 0.00 | 0.09 | 0.03 | 99 | 1016.6 | |
| 20260505112529 | 53 | 58 | 0.9 | 2.6 | 0.00 | 0.09 | 0.03 | 99 | 1016.6 |
| 20260505111526 | 53 | 0.0 | 1.7 | 0.00 | 0.09 | 0.03 | 99 | 1016.6 | |
| 20260505110527 | 53 | 0 | 0.0 | 1.7 | 0.00 | 0.09 | 0.03 | 99 | 1016.7 |
| 20260505101519 | 53 | 338 | 0.0 | 1.7 | 0.00 | 0.09 | 0.03 | 98 | 1016.6 |
| 20260505100519 | 53 | 0.0 | 0.0 | 0.00 | 0.09 | 0.03 | 98 | 1016.7 | |
| 20260505095533 | 53 | 338 | 0.0 | 2.6 | 0.00 | 0.09 | 0.03 | 98 | 1016.8 |
| 20260505094528 | 53 | 0.0 | 2.6 | 0.00 | 0.09 | 0.03 | 98 | 1016.8 | |
| 20260505093530 | 53 | 343 | 1.7 | 3.5 | 0.01 | 0.09 | 0.03 | 97 | 1017.0 |
| 20260505092531 | 53 | 337 | 1.7 | 4.3 | 0.01 | 0.09 | 0.03 | 97 | 1017.1 |
| 20260505091552 | 53 | 338 | 0.0 | 2.6 | 0.01 | 0.09 | 0.03 | 97 | 1017.1 |
| 20260505090533 | 53 | 0.0 | 0.0 | 0.01 | 0.09 | 0.03 | 96 | 1017.1 | |
| 20260505085533 | 53 | 0.0 | 0.0 | 0.02 | 0.09 | 0.03 | 96 | 1017.1 | |
| 20260505084516 | 53 | 340 | 0.9 | 2.6 | 0.02 | 0.09 | 0.03 | 96 | 1017.1 |
| 20260505083516 | 53 | 331 | 0.9 | 2.6 | 0.02 | 0.08 | 0.02 | 95 | 1017.1 |
| 20260505082524 | 53 | 45 | 0.0 | 2.6 | 0.02 | 0.08 | 0.02 | 95 | 1017.3 |
| 20260505081521 | 53 | 340 | 1.7 | 4.3 | 0.02 | 0.08 | 0.02 | 95 | 1017.3 |
| 20260505080516 | 53 | 12 | 1.7 | 3.5 | 0.02 | 0.08 | 0.02 | 94 | 1017.3 |
| 20260505075518 | 54 | 321 | 1.7 | 3.5 | 0.01 | 0.07 | 0.01 | 94 | 1017.3 |
| 20260505074519 | 54 | 336 | 2.6 | 4.3 | 0.01 | 0.07 | 0.01 | 92 | 1017.3 |
| 20260505073520 | 55 | 316 | 3.5 | 4.3 | 0.00 | 0.06 | 0.00 | 90 | 1017.3 |
| 20260505072521 | 55 | 355 | 2.6 | 5.2 | 0.00 | 0.06 | 0.00 | 88 | 1017.1 |
| 20260505071524 | 56 | 23 | 0.0 | 1.7 | 0.00 | 0.06 | 0.00 | 88 | 1017.1 |
| 20260505070523 | 56 | 3 | 0.9 | 2.6 | 0.00 | 0.06 | 0.00 | 88 | 1017.1 |
| 20260505065525 | 56 | 330 | 0.9 | 2.6 | 0.00 | 0.06 | 0.06 | 88 | 1017.1 |
| 20260505064525 | 56 | 342 | 1.7 | 4.3 | 0.00 | 0.06 | 0.06 | 88 | 1017.1 |
| 20260505063525 | 56 | 335 | 0.9 | 3.5 | 0.00 | 0.06 | 0.06 | 87 | 1017.0 |
| 20260505062527 | 57 | 331 | 1.7 | 2.6 | 0.00 | 0.06 | 0.06 | 87 | 1017.0 |
| 20260505061544 | 57 | 326 | 0.9 | 2.6 | 0.00 | 0.06 | 0.06 | 86 | 1017.1 |
| 20260505060518 | 57 | 317 | 1.7 | 2.6 | 0.00 | 0.06 | 0.06 | 85 | 1017.1 |
| 20260505055532 | 57 | 15 | 0.9 | 3.5 | 0.00 | 0.06 | 0.06 | 85 | 1017.1 |
| 20260505054554 | 57 | 315 | 1.7 | 2.6 | 0.00 | 0.06 | 0.06 | 85 | 1017.1 |
| 20260505053517 | 57 | 299 | 0.9 | 3.5 | 0.00 | 0.06 | 0.06 | 85 | 1017.1 |
| 20260505052518 | 57 | 36 | 0.9 | 3.5 | 0.00 | 0.06 | 0.06 | 85 | 1017.1 |
| 20260505051518 | 58 | 286 | 0.9 | 4.3 | 0.00 | 0.06 | 0.06 | 86 | 1017.1 |
| 20260505050519 | 58 | 318 | 0.9 | 4.3 | 0.00 | 0.06 | 0.06 | 89 | 1017.0 |
| 20260505041525 | 57 | 0.0 | 0.0 | 0.00 | 0.06 | 0.06 | 93 | 1016.6 | |
| 20260505040520 | 57 | 0.0 | 0.0 | 0.00 | 0.06 | 0.06 | 92 | 1016.4 | |
| 20260505035518 | 58 | 0.0 | 0.0 | 0.00 | 0.06 | 0.06 | 91 | 1016.3 | |
| 20260505034543 | 58 | 0.0 | 0.0 | 0.00 | 0.06 | 0.06 | 90 | 1016.3 | |
| 20260505033525 | 58 | 0.0 | 0.0 | 0.00 | 0.06 | 0.06 | 90 | 1016.1 | |
| 20260505032520 | 58 | 0.0 | 0.0 | 0.00 | 0.06 | 0.06 | 89 | 1016.1 | |
| 20260505031522 | 58 | 0.0 | 0.0 | 0.00 | 0.06 | 0.06 | 89 | 1016.1 | |
| 20260505030522 | 58 | 0.0 | 0.0 | 0.00 | 0.06 | 0.06 | 89 | 1016.0 | |
| 20260505025519 | 58 | 0.0 | 0.0 | 0.00 | 0.06 | 0.06 | 88 | 1015.9 | |
| 20260505024523 | 59 | 0.0 | 0.0 | 0.00 | 0.06 | 0.06 | 88 | 1015.9 | |
| 20260505023522 | 59 | 0.0 | 0.0 | 0.00 | 0.06 | 0.06 | 88 | 1016.1 | |
| 20260505022524 | 59 | 0.0 | 0.0 | 0.00 | 0.06 | 0.06 | 88 | 1016.3 | |
| 20260505021528 | 59 | 0.0 | 0.0 | 0.00 | 0.06 | 0.06 | 87 | 1016.3 | |
| 20260505020524 | 59 | 0.0 | 0.0 | 0.00 | 0.06 | 0.06 | 87 | 1016.3 |